Time;durP1;ratioP1;P1;durP2;ratioP2;P2;SDS_P1;SDS_P2;PMS_P1;PMS_P2;Temp;Humidity;BMP_temperature;BMP_pressure;BME280_temperature;BME280_humidity;BME280_pressure;Samples;Min_cycle;Max_cycle;Signal;HPM_P1;HPM_P2
2023/07/19 00:02:24;;;;;;;;;;;21.10;99.90;;;;;;4982549;28;21185;-75
2023/07/19 00:04:50;;;;;;;;;;;21.00;99.90;;;;;;4983612;28;19940;-75
2023/07/19 00:07:15;;;;;;;;;;;20.90;99.90;;;;;;4984269;28;20382;-75
2023/07/19 00:09:41;;;;;;;;;;;20.90;99.90;;;;;;4983167;28;19938;-74
2023/07/19 00:12:06;;;;;;;;;;;20.90;99.90;;;;;;4965492;28;19968;-75
2023/07/19 00:14:32;;;;;;;;;;;20.90;99.90;;;;;;4985318;28;19974;-73
2023/07/19 00:16:57;;;;;;;;;;;21.00;99.90;;;;;;4983317;28;19937;-74
2023/07/19 00:19:23;;;;;;;;;;;21.00;99.90;;;;;;4982041;28;19943;-74
2023/07/19 00:21:49;;;;;;;;;;;20.90;99.90;;;;;;4988004;28;19931;-74
2023/07/19 00:24:14;;;;;;;;;;;20.90;99.90;;;;;;4984690;28;19959;-73
2023/07/19 00:26:40;;;;;;;;;;;20.80;99.90;;;;;;4977130;28;20048;-68
2023/07/19 00:29:05;;;;;;;;;;;20.90;99.90;;;;;;4976605;28;19962;-73
2023/07/19 00:31:31;;;;;;;;;;;20.70;99.90;;;;;;4975393;28;19963;-74
2023/07/19 00:33:56;;;;;;;;;;;20.70;99.90;;;;;;4978353;28;20112;-74
2023/07/19 00:36:22;;;;;;;;;;;20.80;99.90;;;;;;4986640;28;20008;-68
2023/07/19 00:38:47;;;;;;;;;;;20.80;99.90;;;;;;4979257;28;19942;-74
2023/07/19 00:41:13;;;;;;;;;;;20.80;99.90;;;;;;4982209;28;19939;-71
2023/07/19 00:43:38;;;;;;;;;;;20.70;99.90;;;;;;4985050;28;19931;-72
2023/07/19 00:46:05;;;;;;;;;;;20.60;99.90;;;;;;4982503;28;19948;-71
2023/07/19 00:48:31;;;;;;;;;;;20.50;99.90;;;;;;4982500;28;19937;-73
2023/07/19 00:50:57;;;;;;;;;;;20.50;99.90;;;;;;4982785;28;19967;-73
2023/07/19 00:53:24;;;;;;;;;;;20.50;99.90;;;;;;4981422;28;19976;-72
2023/07/19 00:55:50;;;;;;;;;;;20.40;99.90;;;;;;4979368;28;20495;-72
2023/07/19 00:58:15;;;;;;;;;;;20.30;99.90;;;;;;4974650;28;20419;-73
2023/07/19 01:00:41;;;;;;;;;;;20.30;99.90;;;;;;4977401;28;19941;-73
2023/07/19 01:03:07;;;;;;;;;;;20.40;99.90;;;;;;4980602;28;20188;-72
2023/07/19 01:05:32;;;;;;;;;;;20.30;99.90;;;;;;4979473;28;19936;-74
2023/07/19 01:07:58;;;;;;;;;;;20.40;99.90;;;;;;4981517;28;19967;-71
2023/07/19 01:10:25;;;;;;;;;;;20.40;99.90;;;;;;4982838;28;19938;-72
2023/07/19 01:13:06;;;;;;;;;;;20.30;99.90;;;;;;4982833;28;19992;-73
2023/07/19 01:15:32;;;;;;;;;;;20.30;99.90;;;;;;4986542;28;19999;-72
2023/07/19 01:17:58;;;;;;;;;;;20.10;99.90;;;;;;4986319;28;20478;-72
2023/07/19 01:20:23;;;;;;;;;;;20.00;99.90;;;;;;4983763;28;20426;-73
2023/07/19 01:22:49;;;;;;;;;;;20.00;99.90;;;;;;4986237;28;19978;-72
2023/07/19 01:25:14;;;;;;;;;;;19.90;99.90;;;;;;4985833;28;19947;-73
2023/07/19 01:27:40;;;;;;;;;;;19.90;99.90;;;;;;4986298;28;19949;-73
2023/07/19 01:30:06;;;;;;;;;;;20.00;99.90;;;;;;4982706;28;20395;-72
2023/07/19 01:32:31;;;;;;;;;;;20.00;99.90;;;;;;4984870;28;19959;-73
2023/07/19 01:34:57;;;;;;;;;;;20.10;99.90;;;;;;4988008;28;20041;-72
2023/07/19 01:37:22;;;;;;;;;;;20.10;99.90;;;;;;4984652;28;20144;-71
2023/07/19 01:39:49;;;;;;;;;;;20.00;99.90;;;;;;4986754;28;20017;-71
2023/07/19 01:42:14;;;;;;;;;;;19.90;99.90;;;;;;4982248;28;19945;-70
2023/07/19 01:44:40;;;;;;;;;;;19.90;99.90;;;;;;4975702;28;20254;-72
2023/07/19 01:47:06;;;;;;;;;;;19.90;99.90;;;;;;4986977;28;19943;-72
2023/07/19 01:49:31;;;;;;;;;;;19.80;99.90;;;;;;4985153;28;19947;-72
2023/07/19 01:51:57;;;;;;;;;;;19.90;99.90;;;;;;4989857;28;19959;-72
2023/07/19 01:54:22;;;;;;;;;;;19.90;99.90;;;;;;4982571;28;19938;-73
2023/07/19 01:56:48;;;;;;;;;;;19.90;99.90;;;;;;4983224;28;19937;-73
2023/07/19 01:59:13;;;;;;;;;;;19.90;99.90;;;;;;4983978;28;19939;-72
2023/07/19 02:01:39;;;;;;;;;;;19.80;99.90;;;;;;4962069;28;20054;-71
2023/07/19 02:04:05;;;;;;;;;;;19.80;99.90;;;;;;4968964;28;19938;-77
2023/07/19 02:06:30;;;;;;;;;;;19.70;99.90;;;;;;4967788;28;19990;-77
2023/07/19 02:08:56;;;;;;;;;;;19.70;99.90;;;;;;4968739;28;20396;-77
2023/07/19 02:11:21;;;;;;;;;;;19.70;99.90;;;;;;4962646;28;19998;-78
2023/07/19 02:13:47;;;;;;;;;;;19.70;99.90;;;;;;4969243;28;19935;-78
2023/07/19 02:16:12;;;;;;;;;;;19.70;99.90;;;;;;4967418;28;20034;-75
2023/07/19 02:18:38;;;;;;;;;;;19.60;99.90;;;;;;4951651;28;20463;-77
2023/07/19 02:21:03;;;;;;;;;;;19.60;99.90;;;;;;4966702;28;19936;-77
2023/07/19 02:23:29;;;;;;;;;;;19.60;99.90;;;;;;4968805;28;19978;-77
2023/07/19 02:25:55;;;;;;;;;;;19.60;99.90;;;;;;4963866;28;20350;-78
2023/07/19 02:28:20;;;;;;;;;;;19.50;99.90;;;;;;4968268;28;19944;-77
2023/07/19 02:30:46;;;;;;;;;;;19.40;99.90;;;;;;4961770;28;19940;-77
2023/07/19 02:33:12;;;;;;;;;;;19.40;99.90;;;;;;4960728;28;20063;-75
2023/07/19 02:35:38;;;;;;;;;;;19.20;99.90;;;;;;4965634;28;19939;-76
2023/07/19 02:38:03;;;;;;;;;;;19.20;99.90;;;;;;4967409;28;19953;-77
2023/07/19 02:40:29;;;;;;;;;;;19.10;99.90;;;;;;4960888;28;19934;-73
2023/07/19 02:42:55;;;;;;;;;;;19.10;99.90;;;;;;4969909;28;19938;-73
2023/07/19 02:45:20;;;;;;;;;;;19.10;99.90;;;;;;4966783;28;19944;-74
2023/07/19 02:47:46;;;;;;;;;;;19.20;99.90;;;;;;4965935;28;19978;-73
2023/07/19 02:50:11;;;;;;;;;;;19.20;99.90;;;;;;4967373;28;19966;-73
2023/07/19 02:52:37;;;;;;;;;;;19.20;99.90;;;;;;4972468;28;19995;-73
2023/07/19 02:55:03;;;;;;;;;;;19.20;99.90;;;;;;4966366;28;20392;-72
2023/07/19 02:57:28;;;;;;;;;;;19.10;99.90;;;;;;4962230;28;19926;-73
2023/07/19 02:59:54;;;;;;;;;;;19.10;99.90;;;;;;4964915;28;19958;-71
2023/07/19 03:02:19;;;;;;;;;;;19.00;99.90;;;;;;4972391;28;20279;-74
2023/07/19 03:04:46;;;;;;;;;;;19.00;99.90;;;;;;4981960;28;19979;-72
2023/07/19 03:07:12;;;;;;;;;;;19.00;99.90;;;;;;4987729;28;19979;-72
2023/07/19 03:09:37;;;;;;;;;;;19.10;99.90;;;;;;4978014;28;20797;-72
2023/07/19 03:12:03;;;;;;;;;;;19.10;99.90;;;;;;4982858;28;19959;-73
2023/07/19 03:14:28;;;;;;;;;;;19.10;99.90;;;;;;4985187;28;19936;-73
2023/07/19 03:16:54;;;;;;;;;;;19.10;99.90;;;;;;4982075;28;19938;-71
2023/07/19 03:19:19;;;;;;;;;;;19.10;99.90;;;;;;4965033;28;20423;-73
2023/07/19 03:21:45;;;;;;;;;;;19.20;99.90;;;;;;4990805;28;19927;-72
2023/07/19 03:24:12;;;;;;;;;;;19.20;99.90;;;;;;4987832;28;20390;-73
2023/07/19 03:26:37;;;;;;;;;;;19.20;99.90;;;;;;4983368;28;19926;-72
2023/07/19 03:29:03;;;;;;;;;;;19.20;99.90;;;;;;4986287;28;20373;-74
2023/07/19 03:31:28;;;;;;;;;;;19.20;99.90;;;;;;4989281;28;20010;-73
2023/07/19 03:33:54;;;;;;;;;;;19.20;99.90;;;;;;4984613;28;19958;-71
2023/07/19 03:36:19;;;;;;;;;;;19.30;99.90;;;;;;4986140;28;21485;-72
2023/07/19 03:38:45;;;;;;;;;;;19.30;99.90;;;;;;4982381;28;19941;-73
2023/07/19 03:41:11;;;;;;;;;;;19.40;99.90;;;;;;4982533;28;20542;-72
2023/07/19 03:43:36;;;;;;;;;;;19.40;99.90;;;;;;4987890;28;19951;-73
2023/07/19 03:46:04;;;;;;;;;;;19.40;99.90;;;;;;4980792;28;20911;-73
2023/07/19 03:48:29;;;;;;;;;;;19.30;99.90;;;;;;4983932;28;19933;-72
2023/07/19 03:50:58;;;;;;;;;;;19.40;99.90;;;;;;4981943;28;20516;-72
2023/07/19 03:53:23;;;;;;;;;;;19.40;99.90;;;;;;4982558;28;19941;-73
2023/07/19 03:55:55;;;;;;;;;;;19.40;99.90;;;;;;4984785;28;19945;-77
2023/07/19 03:58:24;;;;;;;;;;;19.50;99.90;;;;;;4985392;28;21176;-77
2023/07/19 04:00:52;;;;;;;;;;;19.50;99.90;;;;;;4983232;28;19940;-75
2023/07/19 04:03:18;;;;;;;;;;;19.50;99.90;;;;;;4988335;28;19977;-75
2023/07/19 04:05:44;;;;;;;;;;;19.40;99.90;;;;;;4984585;28;19936;-78
2023/07/19 04:08:10;;;;;;;;;;;19.40;99.90;;;;;;4984780;28;20592;-76
2023/07/19 04:10:35;;;;;;;;;;;19.50;99.90;;;;;;4983400;28;19941;-77
2023/07/19 04:13:01;;;;;;;;;;;19.60;99.90;;;;;;4988129;28;19941;-73
2023/07/19 04:15:26;;;;;;;;;;;19.60;99.90;;;;;;4989253;28;19935;-73
2023/07/19 04:17:52;;;;;;;;;;;19.70;99.90;;;;;;4989739;28;19982;-73
2023/07/19 04:20:17;;;;;;;;;;;19.80;99.90;;;;;;4989179;28;19933;-72
2023/07/19 04:22:43;;;;;;;;;;;19.70;99.90;;;;;;4987322;28;19937;-73
2023/07/19 04:25:09;;;;;;;;;;;19.80;99.90;;;;;;4983560;28;19981;-73
2023/07/19 04:27:34;;;;;;;;;;;19.80;99.90;;;;;;4984641;28;19931;-70
2023/07/19 04:30:00;;;;;;;;;;;19.90;99.90;;;;;;4987958;28;19962;-78
2023/07/19 04:32:26;;;;;;;;;;;20.00;99.90;;;;;;4989576;28;19967;-77
2023/07/19 04:34:54;;;;;;;;;;;20.10;99.90;;;;;;4984887;28;19956;-76
2023/07/19 04:37:19;;;;;;;;;;;20.10;99.90;;;;;;4985607;28;19956;-76
2023/07/19 04:39:45;;;;;;;;;;;20.20;99.90;;;;;;4987556;28;20414;-78
2023/07/19 04:42:10;;;;;;;;;;;20.30;99.90;;;;;;4984333;28;19930;-77
2023/07/19 04:44:38;;;;;;;;;;;20.40;99.90;;;;;;4972123;28;19989;-76
2023/07/19 04:47:04;;;;;;;;;;;20.60;99.90;;;;;;4986724;28;19933;-77
2023/07/19 04:49:30;;;;;;;;;;;20.80;99.90;;;;;;4985760;28;19981;-77
2023/07/19 04:51:56;;;;;;;;;;;20.90;99.90;;;;;;4988931;28;20047;-77
2023/07/19 04:54:21;;;;;;;;;;;21.00;99.90;;;;;;4981604;28;21251;-77
2023/07/19 04:56:47;;;;;;;;;;;21.10;99.90;;;;;;4990514;28;20324;-75
2023/07/19 04:59:13;;;;;;;;;;;21.20;99.90;;;;;;4987999;28;20024;-77
2023/07/19 05:01:38;;;;;;;;;;;21.30;99.90;;;;;;4989315;28;19983;-77
2023/07/19 05:04:04;;;;;;;;;;;21.40;99.90;;;;;;4970440;28;19934;-78
2023/07/19 05:06:31;;;;;;;;;;;21.50;99.90;;;;;;4989128;28;19932;-77
2023/07/19 05:08:57;;;;;;;;;;;21.60;99.90;;;;;;4985177;28;19944;-77
2023/07/19 05:11:25;;;;;;;;;;;21.60;99.90;;;;;;4984282;28;20257;-77
2023/07/19 05:13:50;;;;;;;;;;;21.80;99.90;;;;;;4984511;28;20355;-76
2023/07/19 05:16:16;;;;;;;;;;;21.90;99.90;;;;;;4988689;28;19932;-77
2023/07/19 05:18:42;;;;;;;;;;;21.90;99.90;;;;;;4987204;28;20397;-76
2023/07/19 05:21:07;;;;;;;;;;;22.10;99.90;;;;;;4986570;28;19931;-77
2023/07/19 05:23:33;;;;;;;;;;;22.10;99.90;;;;;;4987461;28;20010;-77
2023/07/19 05:25:58;;;;;;;;;;;22.10;99.90;;;;;;4988981;28;19936;-78
2023/07/19 05:28:24;;;;;;;;;;;22.20;99.90;;;;;;4984282;28;20400;-77
2023/07/19 05:30:49;;;;;;;;;;;22.30;99.90;;;;;;4985183;28;20951;-76
2023/07/19 05:33:15;;;;;;;;;;;22.30;99.90;;;;;;4985717;28;20012;-77
2023/07/19 05:35:42;;;;;;;;;;;22.40;99.90;;;;;;4982802;28;19929;-77
2023/07/19 05:38:08;;;;;;;;;;;22.50;99.90;;;;;;4981326;28;19934;-76
2023/07/19 05:40:33;;;;;;;;;;;22.60;99.90;;;;;;4983871;28;19932;-76
2023/07/19 05:42:59;;;;;;;;;;;22.70;99.90;;;;;;4982354;28;19932;-77
2023/07/19 05:45:25;;;;;;;;;;;22.80;99.90;;;;;;4979324;28;19933;-77
2023/07/19 05:47:50;;;;;;;;;;;23.00;99.90;;;;;;4987555;28;19923;-79
2023/07/19 05:50:16;;;;;;;;;;;23.10;99.90;;;;;;4984363;28;21884;-77
2023/07/19 05:52:41;;;;;;;;;;;23.20;99.90;;;;;;4976213;28;20392;-78
2023/07/19 05:55:07;;;;;;;;;;;23.20;99.90;;;;;;4984267;28;19998;-79
2023/07/19 05:57:33;;;;;;;;;;;23.20;99.90;;;;;;4983393;28;20412;-78
2023/07/19 06:00:02;;;;;;;;;;;23.30;99.90;;;;;;4984387;28;19975;-81
2023/07/19 06:02:27;;;;;;;;;;;23.30;99.90;;;;;;4978300;28;20347;-78
2023/07/19 06:04:53;;;;;;;;;;;23.40;99.90;;;;;;4983640;28;19947;-74
2023/07/19 06:07:18;;;;;;;;;;;23.40;99.90;;;;;;4979866;28;19947;-74
2023/07/19 06:09:44;;;;;;;;;;;23.50;99.90;;;;;;4979340;28;20418;-73
2023/07/19 06:12:10;;;;;;;;;;;23.50;99.90;;;;;;4981038;28;19957;-75
2023/07/19 06:14:36;;;;;;;;;;;23.50;99.90;;;;;;4985748;28;19963;-73
2023/07/19 06:17:01;;;;;;;;;;;23.50;99.90;;;;;;4982156;28;20524;-74
2023/07/19 06:19:27;;;;;;;;;;;23.50;99.90;;;;;;4980674;28;19936;-74
2023/07/19 06:21:52;;;;;;;;;;;23.50;99.90;;;;;;4985503;28;19951;-74
2023/07/19 06:24:18;;;;;;;;;;;23.50;99.90;;;;;;4983550;28;19931;-74
2023/07/19 06:26:43;;;;;;;;;;;23.60;99.90;;;;;;4975605;28;19940;-74
2023/07/19 06:29:09;;;;;;;;;;;23.60;99.90;;;;;;4980642;28;20020;-74
2023/07/19 06:31:34;;;;;;;;;;;23.60;99.90;;;;;;4983617;28;19957;-72
2023/07/19 06:34:00;;;;;;;;;;;23.60;99.90;;;;;;4982647;28;19953;-73
2023/07/19 06:36:26;;;;;;;;;;;23.60;99.90;;;;;;4977570;28;20481;-74
2023/07/19 06:38:52;;;;;;;;;;;23.70;99.90;;;;;;4974766;28;20019;-79
2023/07/19 06:41:18;;;;;;;;;;;23.70;99.90;;;;;;4979908;28;21029;-77
2023/07/19 06:43:43;;;;;;;;;;;23.80;99.90;;;;;;4975398;28;19939;-76
2023/07/19 06:46:09;;;;;;;;;;;23.90;99.90;;;;;;4978194;28;19935;-77
2023/07/19 06:48:34;;;;;;;;;;;24.10;99.90;;;;;;4979124;28;19933;-77
2023/07/19 06:51:00;;;;;;;;;;;24.10;99.90;;;;;;4982353;28;19978;-77
2023/07/19 06:53:25;;;;;;;;;;;24.20;99.90;;;;;;4985471;28;19943;-78
2023/07/19 06:55:53;;;;;;;;;;;24.30;99.90;;;;;;4985114;28;19976;-76
2023/07/19 06:58:19;;;;;;;;;;;24.30;99.90;;;;;;4985455;28;19936;-79
2023/07/19 07:00:44;;;;;;;;;;;24.40;99.90;;;;;;4985222;28;20515;-79
2023/07/19 07:03:10;;;;;;;;;;;24.40;99.90;;;;;;4985473;28;20435;-78
2023/07/19 07:05:36;;;;;;;;;;;24.40;99.90;;;;;;4978640;28;19939;-78
2023/07/19 07:08:01;;;;;;;;;;;24.40;99.90;;;;;;4985664;28;19936;-76
2023/07/19 07:10:27;;;;;;;;;;;24.40;99.90;;;;;;4986684;28;19944;-78
2023/07/19 07:12:52;;;;;;;;;;;24.40;99.90;;;;;;4985813;28;20578;-78
2023/07/19 07:15:18;;;;;;;;;;;24.40;99.90;;;;;;4984174;28;19940;-79
2023/07/19 07:17:44;;;;;;;;;;;24.40;99.90;;;;;;4984397;28;20902;-79
2023/07/19 07:20:09;;;;;;;;;;;24.50;99.90;;;;;;4985155;28;19934;-79
2023/07/19 07:22:35;;;;;;;;;;;24.50;99.90;;;;;;4982585;28;19945;-78
2023/07/19 07:25:01;;;;;;;;;;;24.60;99.90;;;;;;4986220;28;20431;-77
2023/07/19 07:27:29;;;;;;;;;;;24.70;99.90;;;;;;4984450;28;19940;-77
2023/07/19 07:29:55;;;;;;;;;;;24.80;99.90;;;;;;4981088;28;19935;-77
2023/07/19 07:32:20;;;;;;;;;;;24.90;99.90;;;;;;4976079;28;19967;-78
2023/07/19 07:34:46;;;;;;;;;;;25.00;99.90;;;;;;4984682;28;19956;-74
2023/07/19 07:37:11;;;;;;;;;;;25.10;99.90;;;;;;4979559;28;19944;-73
2023/07/19 07:39:37;;;;;;;;;;;25.10;99.90;;;;;;4978921;28;19931;-74
2023/07/19 07:42:03;;;;;;;;;;;25.30;99.90;;;;;;4987177;28;19988;-73
2023/07/19 07:44:28;;;;;;;;;;;25.30;99.90;;;;;;4988265;28;19946;-74
2023/07/19 07:46:54;;;;;;;;;;;25.30;99.90;;;;;;4991319;28;20029;-73
2023/07/19 07:49:19;;;;;;;;;;;25.40;99.90;;;;;;4971089;28;19994;-73
2023/07/19 07:51:45;;;;;;;;;;;25.50;99.90;;;;;;4977770;28;20373;-74
2023/07/19 07:54:10;;;;;;;;;;;25.60;99.90;;;;;;4983442;28;19950;-74
2023/07/19 07:56:36;;;;;;;;;;;25.80;99.90;;;;;;4981553;28;19940;-74
2023/07/19 07:59:02;;;;;;;;;;;25.80;99.90;;;;;;4981790;28;20297;-73
2023/07/19 08:01:28;;;;;;;;;;;25.90;99.90;;;;;;4983801;28;19936;-72
2023/07/19 08:03:53;;;;;;;;;;;25.90;99.90;;;;;;4986007;28;19945;-75
2023/07/19 08:06:19;;;;;;;;;;;26.00;99.90;;;;;;4980823;28;20417;-75
2023/07/19 08:08:45;;;;;;;;;;;26.10;99.90;;;;;;4973889;28;19991;-73
2023/07/19 08:11:10;;;;;;;;;;;26.10;99.90;;;;;;4983254;28;20055;-79
2023/07/19 08:13:36;;;;;;;;;;;26.10;99.90;;;;;;4987188;28;20349;-78
2023/07/19 08:16:03;;;;;;;;;;;26.20;99.90;;;;;;4982474;28;19990;-78
2023/07/19 08:18:29;;;;;;;;;;;26.40;99.90;;;;;;4985652;28;19931;-81
2023/07/19 08:20:55;;;;;;;;;;;26.50;99.90;;;;;;4983884;28;19943;-80
2023/07/19 08:23:20;;;;;;;;;;;26.50;99.90;;;;;;4971229;28;19975;-77
2023/07/19 08:25:46;;;;;;;;;;;26.50;99.90;;;;;;4972935;28;20356;-78
2023/07/19 08:28:11;;;;;;;;;;;26.60;99.90;;;;;;4974552;28;19943;-76
2023/07/19 08:30:38;;;;;;;;;;;26.70;99.90;;;;;;4978168;28;20373;-76
2023/07/19 08:33:08;;;;;;;;;;;26.80;99.90;;;;;;4961430;28;20254;-79
2023/07/19 08:35:33;;;;;;;;;;;26.70;99.90;;;;;;4985050;28;19958;-77
2023/07/19 08:37:59;;;;;;;;;;;26.80;99.90;;;;;;4979108;28;20507;-76
2023/07/19 08:40:26;;;;;;;;;;;26.80;99.90;;;;;;4982666;28;20538;-78
2023/07/19 08:42:51;;;;;;;;;;;26.70;99.90;;;;;;4973828;28;20052;-76
2023/07/19 08:45:17;;;;;;;;;;;26.70;99.90;;;;;;4979871;28;20488;-77
2023/07/19 08:47:43;;;;;;;;;;;26.80;99.90;;;;;;4973973;28;19945;-73
2023/07/19 08:50:10;;;;;;;;;;;26.90;99.90;;;;;;4988391;28;19935;-73
2023/07/19 08:52:36;;;;;;;;;;;27.00;99.90;;;;;;4963905;28;20296;-67
2023/07/19 08:55:03;;;;;;;;;;;27.00;99.90;;;;;;4983394;28;19995;-69
2023/07/19 08:57:28;;;;;;;;;;;26.90;99.90;;;;;;4981423;28;19943;-67
2023/07/19 08:59:54;;;;;;;;;;;26.80;99.90;;;;;;4972071;28;19962;-67
2023/07/19 09:02:19;;;;;;;;;;;26.70;99.90;;;;;;4962934;28;20351;-67
2023/07/19 09:05:07;;;;;;;;;;;26.60;99.90;;;;;;4979143;28;19933;-69
2023/07/19 09:07:33;;;;;;;;;;;26.60;99.90;;;;;;4987706;28;20056;-77
2023/07/19 09:09:59;;;;;;;;;;;26.70;99.90;;;;;;4983138;28;19940;-76
2023/07/19 09:12:25;;;;;;;;;;;26.70;99.90;;;;;;4985159;28;19956;-75
2023/07/19 09:14:50;;;;;;;;;;;26.80;99.90;;;;;;4990926;28;19940;-76
2023/07/19 09:17:16;;;;;;;;;;;26.90;99.90;;;;;;4984910;28;20073;-76
2023/07/19 09:19:42;;;;;;;;;;;27.00;99.90;;;;;;4985562;28;20290;-76
2023/07/19 09:22:09;;;;;;;;;;;27.00;99.90;;;;;;4990098;28;19947;-76
2023/07/19 09:24:34;;;;;;;;;;;26.90;99.90;;;;;;4985972;28;20069;-76
2023/07/19 09:27:00;;;;;;;;;;;26.90;99.90;;;;;;4981862;28;19931;-75
2023/07/19 09:29:30;;;;;;;;;;;27.00;99.90;;;;;;4988402;28;19933;-76
2023/07/19 09:31:56;;;;;;;;;;;27.10;99.90;;;;;;4970875;28;19999;-78
2023/07/19 09:34:22;;;;;;;;;;;27.00;99.90;;;;;;4986186;28;19966;-77
2023/07/19 09:36:49;;;;;;;;;;;27.10;99.90;;;;;;4992962;28;19936;-76
2023/07/19 09:39:15;;;;;;;;;;;27.10;99.90;;;;;;4991212;28;20422;-77
2023/07/19 09:41:43;;;;;;;;;;;27.20;99.90;;;;;;4989823;28;19940;-76
2023/07/19 09:44:09;;;;;;;;;;;27.30;99.90;;;;;;4988376;28;19994;-67
2023/07/19 09:46:38;;;;;;;;;;;27.30;99.90;;;;;;4975061;28;19936;-67
2023/07/19 09:49:03;;;;;;;;;;;27.30;99.90;;;;;;4990634;28;20026;-68
2023/07/19 09:51:33;;;;;;;;;;;27.40;99.90;;;;;;4989841;28;19970;-68
2023/07/19 09:54:06;;;;;;;;;;;27.40;99.90;;;;;;4995810;28;20037;-68
2023/07/19 09:56:32;;;;;;;;;;;27.50;99.90;;;;;;4993015;28;19930;-67
2023/07/19 09:58:58;;;;;;;;;;;27.60;99.90;;;;;;4991773;28;19936;-67
2023/07/19 10:01:24;;;;;;;;;;;27.70;99.90;;;;;;4990557;28;19961;-66
2023/07/19 10:03:50;;;;;;;;;;;27.70;99.90;;;;;;4986956;28;20505;-67
2023/07/19 10:06:15;;;;;;;;;;;27.70;99.90;;;;;;4991940;28;19938;-67
2023/07/19 10:08:41;;;;;;;;;;;27.70;99.90;;;;;;4990378;28;20060;-67
2023/07/19 10:11:06;;;;;;;;;;;27.60;99.90;;;;;;4987177;28;19984;-70
2023/07/19 10:13:51;;;;;;;;;;;27.60;99.90;;;;;;4971601;28;19938;-66
2023/07/19 10:16:33;;;;;;;;;;;27.50;99.90;;;;;;4993495;28;19939;-67
2023/07/19 10:19:12;;;;;;;;;;;27.50;99.90;;;;;;4988050;28;20600;-66
2023/07/19 10:21:38;;;;;;;;;;;27.40;99.90;;;;;;4991675;28;20598;-68
2023/07/19 10:24:05;;;;;;;;;;;27.30;99.90;;;;;;4989746;28;19939;-67
2023/07/19 10:26:34;;;;;;;;;;;27.30;99.90;;;;;;4989126;28;19935;-67
2023/07/19 10:29:01;;;;;;;;;;;27.40;99.90;;;;;;4987836;28;19927;-68
2023/07/19 10:31:26;;;;;;;;;;;27.60;99.90;;;;;;4987774;28;20047;-68
2023/07/19 10:33:55;;;;;;;;;;;27.60;99.90;;;;;;4990741;28;19961;-68
2023/07/19 10:36:20;;;;;;;;;;;27.70;99.90;;;;;;4989858;28;19936;-68
2023/07/19 10:38:46;;;;;;;;;;;27.80;99.90;;;;;;4986521;28;19935;-67
2023/07/19 10:41:13;;;;;;;;;;;27.90;99.90;;;;;;4971371;28;20425;-67
2023/07/19 10:43:38;;;;;;;;;;;28.00;99.90;;;;;;4988357;28;19938;-67
2023/07/19 10:46:07;;;;;;;;;;;28.10;99.90;;;;;;4990366;28;20938;-67
2023/07/19 10:48:33;;;;;;;;;;;28.10;99.90;;;;;;4991055;28;19938;-68
2023/07/19 10:51:00;;;;;;;;;;;28.10;99.90;;;;;;4980230;28;20041;-68
2023/07/19 10:53:26;;;;;;;;;;;28.10;99.90;;;;;;4986754;28;20194;-67
2023/07/19 10:55:52;;;;;;;;;;;28.10;99.90;;;;;;4985317;28;20752;-67
2023/07/19 10:58:18;;;;;;;;;;;28.10;99.90;;;;;;4986209;28;20442;-74
2023/07/19 11:00:44;;;;;;;;;;;28.20;99.90;;;;;;4979075;28;19943;-76
2023/07/19 11:03:14;;;;;;;;;;;28.40;99.90;;;;;;4985663;28;19942;-75
2023/07/19 11:05:41;;;;;;;;;;;28.50;99.90;;;;;;4984919;28;19939;-74
2023/07/19 11:08:07;;;;;;;;;;;28.60;99.90;;;;;;4972792;28;19945;-75
2023/07/19 11:10:32;;;;;;;;;;;28.70;99.90;;;;;;4980843;28;19944;-75
2023/07/19 11:12:58;;;;;;;;;;;28.80;99.90;;;;;;4982584;28;21550;-76
2023/07/19 11:15:26;;;;;;;;;;;28.90;99.90;;;;;;4983468;28;19939;-74
2023/07/19 11:17:55;;;;;;;;;;;29.00;99.90;;;;;;4980683;28;19926;-75
2023/07/19 11:20:27;;;;;;;;;;;29.00;99.90;;;;;;4977752;28;19936;-74
2023/07/19 11:23:01;;;;;;;;;;;29.00;99.90;;;;;;4990024;28;19985;-74
2023/07/19 11:25:27;;;;;;;;;;;29.00;99.90;;;;;;4989862;28;20524;-74
2023/07/19 11:27:52;;;;;;;;;;;29.10;99.90;;;;;;4967782;28;19944;-74
2023/07/19 11:30:18;;;;;;;;;;;29.10;99.90;;;;;;4988450;28;20311;-75
2023/07/19 11:32:43;;;;;;;;;;;29.20;99.90;;;;;;4988134;28;19964;-75
2023/07/19 11:35:09;;;;;;;;;;;29.20;99.90;;;;;;4979149;28;19963;-76
2023/07/19 11:37:38;;;;;;;;;;;29.20;99.90;;;;;;4992331;28;19933;-75
2023/07/19 11:40:05;;;;;;;;;;;29.20;99.90;;;;;;4989559;28;19958;-75
2023/07/19 11:42:40;;;;;;;;;;;29.10;99.90;;;;;;4991742;28;19931;-75
2023/07/19 11:45:10;;;;;;;;;;;29.10;99.90;;;;;;4992653;28;19960;-75
2023/07/19 11:47:36;;;;;;;;;;;29.10;99.90;;;;;;4990108;28;19936;-76
2023/07/19 11:50:03;;;;;;;;;;;29.10;99.90;;;;;;4992696;28;19944;-76
2023/07/19 11:52:28;;;;;;;;;;;29.10;99.90;;;;;;4986704;28;19975;-76
2023/07/19 11:54:55;;;;;;;;;;;29.30;99.90;;;;;;4982097;28;19941;-76
2023/07/19 11:57:21;;;;;;;;;;;29.30;99.90;;;;;;4992508;28;19930;-75
2023/07/19 11:59:48;;;;;;;;;;;29.30;99.90;;;;;;4984646;28;20422;-76
2023/07/19 12:02:14;;;;;;;;;;;29.40;99.90;;;;;;4984152;28;19965;-77
2023/07/19 12:04:39;;;;;;;;;;;29.40;99.90;;;;;;4977202;28;19931;-74
2023/07/19 12:07:05;;;;;;;;;;;29.40;99.90;;;;;;4979120;28;19935;-75
2023/07/19 12:09:30;;;;;;;;;;;29.40;99.90;;;;;;4979907;28;20295;-74
2023/07/19 12:11:56;;;;;;;;;;;29.40;99.90;;;;;;4980703;28;19956;-74
2023/07/19 12:14:21;;;;;;;;;;;29.50;99.90;;;;;;4983159;28;19933;-75
2023/07/19 12:16:47;;;;;;;;;;;29.60;99.90;;;;;;4975208;28;19937;-74
2023/07/19 12:19:13;;;;;;;;;;;29.60;99.90;;;;;;4980624;28;20368;-74
2023/07/19 12:21:40;;;;;;;;;;;29.60;99.90;;;;;;4961904;28;19936;-75
2023/07/19 12:24:05;;;;;;;;;;;29.60;99.90;;;;;;4980222;28;19940;-74
2023/07/19 12:26:31;;;;;;;;;;;29.60;99.90;;;;;;4980307;28;20318;-74
2023/07/19 12:28:56;;;;;;;;;;;29.60;99.90;;;;;;4980925;28;20565;-73
2023/07/19 12:31:22;;;;;;;;;;;29.50;99.90;;;;;;4978494;28;19963;-73
2023/07/19 12:33:49;;;;;;;;;;;29.60;99.90;;;;;;4981336;28;20000;-74
2023/07/19 12:36:14;;;;;;;;;;;29.60;99.90;;;;;;4982013;28;19936;-72
2023/07/19 12:38:40;;;;;;;;;;;29.60;99.90;;;;;;4981777;28;19936;-74
2023/07/19 12:41:06;;;;;;;;;;;29.60;99.90;;;;;;4986129;28;19937;-72
2023/07/19 12:43:31;;;;;;;;;;;29.60;99.90;;;;;;4976438;28;20321;-73
2023/07/19 12:45:57;;;;;;;;;;;29.50;99.90;;;;;;4985894;28;20236;-72
2023/07/19 12:48:23;;;;;;;;;;;29.60;99.90;;;;;;4983053;28;19935;-74
2023/07/19 12:50:48;;;;;;;;;;;29.80;99.90;;;;;;4977791;28;19938;-74
2023/07/19 12:53:15;;;;;;;;;;;29.90;99.90;;;;;;4982021;28;20074;-72
2023/07/19 12:55:40;;;;;;;;;;;30.00;99.90;;;;;;4988827;28;20007;-74
2023/07/19 12:58:06;;;;;;;;;;;29.90;99.90;;;;;;4981166;28;20570;-73
2023/07/19 13:00:31;;;;;;;;;;;29.90;99.90;;;;;;4974590;28;19987;-73
2023/07/19 13:02:57;;;;;;;;;;;29.90;99.90;;;;;;4979252;28;20275;-73
2023/07/19 13:05:22;;;;;;;;;;;29.80;99.90;;;;;;4969457;28;19929;-73
2023/07/19 13:07:50;;;;;;;;;;;29.70;99.90;;;;;;4985122;28;20415;-74
2023/07/19 13:10:16;;;;;;;;;;;29.60;99.90;;;;;;4988740;28;20021;-74
2023/07/19 13:12:41;;;;;;;;;;;29.50;99.90;;;;;;4989592;28;19959;-74
2023/07/19 13:15:07;;;;;;;;;;;29.50;99.90;;;;;;4989632;28;19943;-73
2023/07/19 13:17:33;;;;;;;;;;;29.50;99.90;;;;;;4991382;28;19932;-74
2023/07/19 13:19:59;;;;;;;;;;;29.60;99.90;;;;;;4964657;28;20844;-74
2023/07/19 13:22:24;;;;;;;;;;;29.60;99.90;;;;;;4985812;28;19934;-73
2023/07/19 13:24:50;;;;;;;;;;;29.60;99.90;;;;;;4986992;28;19932;-69
2023/07/19 13:27:15;;;;;;;;;;;29.70;99.90;;;;;;4983865;28;19937;-68
2023/07/19 13:29:41;;;;;;;;;;;29.70;99.90;;;;;;4983508;28;19968;-68
2023/07/19 13:32:07;;;;;;;;;;;29.80;99.90;;;;;;4978659;28;20594;-69
2023/07/19 13:34:32;;;;;;;;;;;29.80;99.90;;;;;;4978717;28;19945;-69
2023/07/19 13:36:58;;;;;;;;;;;29.90;99.90;;;;;;4981309;28;20669;-69
2023/07/19 13:39:23;;;;;;;;;;;29.90;99.90;;;;;;4986015;28;20014;-69
2023/07/19 13:41:49;;;;;;;;;;;29.90;99.90;;;;;;4987331;28;20013;-69
2023/07/19 13:44:14;;;;;;;;;;;30.00;99.90;;;;;;4987463;28;20052;-70
2023/07/19 13:46:40;;;;;;;;;;;30.00;99.90;;;;;;4980770;28;20398;-68
2023/07/19 13:49:05;;;;;;;;;;;30.10;99.90;;;;;;4980308;28;19936;-68
2023/07/19 13:51:31;;;;;;;;;;;30.10;99.90;;;;;;4990219;28;19961;-69
2023/07/19 13:53:56;;;;;;;;;;;30.10;99.90;;;;;;4983764;28;19964;-68
2023/07/19 13:56:22;;;;;;;;;;;30.20;99.90;;;;;;4992570;28;20492;-69
2023/07/19 13:58:47;;;;;;;;;;;30.20;99.90;;;;;;4974387;28;19943;-68
2023/07/19 14:01:14;;;;;;;;;;;30.30;99.50;;;;;;4984704;28;19939;-71
2023/07/19 14:03:40;;;;;;;;;;;30.30;97.00;;;;;;4985291;28;19950;-68
2023/07/19 14:06:05;;;;;;;;;;;30.20;97.90;;;;;;4988052;28;19935;-69
2023/07/19 14:08:31;;;;;;;;;;;30.20;96.80;;;;;;4981073;28;19935;-69
2023/07/19 14:10:56;;;;;;;;;;;30.20;96.10;;;;;;4988950;28;19931;-67